Tuesday, November 21, 2017, 10:39 AM EST
Back to Local

KPSM, Pease Air Force Base / Portsmouth

Location: Portsmouth, NH, United States Lat: 43.083
Local Time: 10:39 AM EST (15:39 GMT) Lon: -70.817
Time Zone: US/Eastern Elev: 101 ft

Show me the last for .
Show Coded

Time T Td Feel RH Dir Speed Gust Alt SLP Vis Weather Sky Remarks
2017-11-21 09:56 43 25 38 47 210° 9 - 30.06 30.07 10 BKN250 None
2017-11-21 08:56 40 26 33 56 210° 10 - 30.08 30.09 10 BKN250 None
2017-11-21 07:56 35 26 28 68 200° 8 - 30.08 30.09 10 BKN250 None
2017-11-21 06:56 31 24 26 74 210° 6 - 30.07 30.08 10 FEW250 6-hr Min Temp (7am): 31.3°F
6-hr Max Temp (7am): 38.8°F
2017-11-21 05:56 33 25 30 70 180° 3 - 30.06 30.07 10 CLR None
2017-11-21 04:56 35 26 30 69 210° 6 - 30.05 30.06 10 CLR None
2017-11-21 03:56 35 26 29 71 200° 6 - 30.05 30.06 10 CLR None
2017-11-21 02:56 36 28 32 70 190° 5 - 30.05 30.06 10 FEW050 None
2017-11-21 01:56 39 28 34 64 210° 7 - 30.06 30.07 10 BKN050 None
2017-11-21 00:56 38 26 33 62 230° 6 - 30.03 30.04 10 BKN055 6-hr Min Temp (1am): 32.7°F
6-hr Max Temp (1am): 37.9°F
2017-11-20 23:56 35 23 32 61 240° 3 - 30.03 30.04 10 OVC055 24-hr Min Temp (12am): 30.9°F
24-hr Max Temp (12am): 40.5°F
2017-11-20 22:56 34 24 31 67 160° 3 - 30.02 30.03 10 BKN047 None
2017-11-20 21:56 35 22 33 58 300° 3 - 30.00 30.01 10 BKN050 None
2017-11-20 20:56 37 23 34 56 270° 5 - 29.98 29.99 10 BKN045 None
2017-11-20 19:56 38 21 31 50 260° 10 - 29.95 29.96 10 BKN060 None
2017-11-20 18:56 37 19 31 48 240° 8 - 29.92 29.93 10 BKN055 6-hr Min Temp (7pm): 36.1°F
6-hr Max Temp (7pm): 40.5°F
2017-11-20 17:56 36 19 30 49 210° 8 - 29.91 29.92 10 BKN060 None
2017-11-20 16:56 37 19 28 48 240° 15 - 29.87 29.88 10 SCT060 None
2017-11-20 15:56 39 17 28 40 240° 15 23 29.86 29.87 10 BKN065 Peak wind: 35 mph (31 kts) from 230° at 36 min
2017-11-20 14:56 40 15 31 34 270° 13 21 29.84 29.85 10 SCT070 Peak wind: 31 mph (27 kts) from 300° at 04 min
2017-11-20 13:56 40 14 30 33 280° 18 23 29.81 29.82 10 FEW070 Peak wind: 34 mph (30 kts) from 270° at 25 min
2017-11-20 12:56 40 14 29 33 260° 20 26 29.81 29.82 10 SCT070 Peak wind: 48 mph (42 kts) from 260° at 36 min
6-hr Min Temp (1pm): 31.3°F
6-hr Max Temp (1pm): 40.3°F
2017-11-20 11:56 39 12 27 31 300° 15 31 29.82 29.83 10 SCT060 Peak wind: 31 mph (27 kts) from 270° at 45 min
2017-11-20 10:56 37 11 25 34 290° 16 30 29.82 29.83 10 SCT060 Peak wind: 43 mph (38 kts) from 290° at 01 min

Support USWX by starting your Amazon purchase here.